Terminal Aerodrome Forecast
Issued by NWS

Home | Current Version | Previous Version | Text Only | Print | Product List | Glossary On
Versions: 1 2 3 4 5 6 7 8 9 10 11 12 13 14 15 16 17 18
000
FTUS45 KPSR 051120
TAFBLH
TAF
KBLH 051120Z 0512/0612 VRB05KT P6SM FEW080 SCT120 BKN200
     FM051500 18008KT P6SM SCT120 BKN200
     FM052000 18012G22KT P6SM FEW080 SCT150
     FM060300 23012KT P6SM FEW120 BKN250=

USA.gov is the U.S. government's official web portal to all federal, state and local government web resources and services.